Time;durP1;ratioP1;P1;durP2;ratioP2;P2;SDS_P1;SDS_P2;PMS_P1;PMS_P2;Temp;Humidity;BMP_temperature;BMP_pressure;BME280_temperature;BME280_humidity;BME280_pressure;Samples;Min_cycle;Max_cycle;Signal;HPM_P1;HPM_P2
2021/10/13 00:00:19;;;;;;;14.00;12.00;;;9.60;99.90;;;;;;5037553;28;20934;-91
2021/10/13 00:02:45;;;;;;;18.07;13.90;;;9.50;99.90;;;;;;5037457;28;20529;-91
2021/10/13 00:05:12;;;;;;;12.80;11.40;;;9.60;99.90;;;;;;5044323;28;20417;-89
2021/10/13 00:07:39;;;;;;;16.23;12.30;;;9.60;99.90;;;;;;5056041;28;20449;-91
2021/10/13 00:10:07;;;;;;;13.90;12.50;;;9.60;99.90;;;;;;5038194;28;20450;-91
2021/10/13 00:12:34;;;;;;;15.17;12.83;;;9.50;99.90;;;;;;5048058;28;20454;-92
2021/10/13 00:15:01;;;;;;;13.70;12.10;;;9.60;99.90;;;;;;5039638;28;20485;-90
2021/10/13 00:17:29;;;;;;;14.57;12.43;;;9.60;99.90;;;;;;5036500;28;20451;-90
2021/10/13 00:19:57;;;;;;;12.73;11.43;;;9.60;99.90;;;;;;5037759;28;20539;-91
2021/10/13 00:22:24;;;;;;;12.83;10.53;;;9.60;99.90;;;;;;5047538;28;20544;-92
2021/10/13 00:24:50;;;;;;;14.23;12.73;;;9.60;99.90;;;;;;5058855;28;20503;-90
2021/10/13 00:27:17;;;;;;;14.87;12.27;;;9.70;99.90;;;;;;5048221;28;20445;-91
2021/10/13 00:29:44;;;;;;;12.93;11.63;;;9.70;99.90;;;;;;5049886;28;20433;-90
2021/10/13 00:32:10;;;;;;;14.27;11.87;;;9.70;99.90;;;;;;5048243;28;20525;-91
2021/10/13 00:35:03;;;;;;;16.13;13.77;;;9.70;99.90;;;;;;5057578;28;20480;-92
2021/10/13 00:37:58;;;;;;;14.77;11.77;;;9.80;99.90;;;;;;5038055;28;20462;-91
2021/10/13 00:41:20;;;;;;;15.60;12.80;;;9.90;99.90;;;;;;5036135;28;20464;-92
2021/10/13 00:47:36;;;;;;;13.97;12.57;;;9.90;99.90;;;;;;4973502;28;20443;-92
2021/10/13 00:51:10;;;;;;;13.83;12.33;;;9.90;99.90;;;;;;4992073;28;20455;-92
2021/10/13 00:53:39;;;;;;;15.83;12.90;;;9.90;99.90;;;;;;4980481;28;20441;-90
2021/10/13 00:56:06;;;;;;;14.30;12.67;;;9.90;99.90;;;;;;5033985;28;20488;-91
2021/10/13 00:58:33;;;;;;;15.87;14.27;;;9.90;99.90;;;;;;5033597;28;20445;-91
2021/10/13 01:01:01;;;;;;;16.07;13.40;;;9.90;99.90;;;;;;5033111;28;20460;-91
2021/10/13 01:03:34;;;;;;;15.10;13.07;;;9.90;99.90;;;;;;5033208;28;20446;-90
2021/10/13 01:06:14;;;;;;;15.47;13.20;;;9.90;99.90;;;;;;5033043;28;20452;-89
2021/10/13 01:08:50;;;;;;;15.50;13.50;;;9.90;99.90;;;;;;5033177;28;20440;-88
2021/10/13 01:11:40;;;;;;;16.40;13.17;;;9.90;99.90;;;;;;5034456;28;20950;-90
2021/10/13 01:14:30;;;;;;;15.30;12.03;;;9.90;99.90;;;;;;5032086;28;20452;-91
2021/10/13 01:17:10;;;;;;;16.43;12.40;;;9.90;99.90;;;;;;5032125;28;20472;-91
2021/10/13 01:19:51;;;;;;;15.90;14.30;;;9.90;99.90;;;;;;5033481;28;20445;-91
2021/10/13 01:22:57;;;;;;;19.53;15.97;;;9.90;99.90;;;;;;5031698;28;20445;-91
2021/10/13 01:25:45;;;;;;;14.47;12.90;;;9.80;99.90;;;;;;5007740;28;20445;-91
2021/10/13 01:28:15;;;;;;;14.83;11.40;;;9.90;99.90;;;;;;5032638;28;20544;-91
2021/10/13 01:30:45;;;;;;;14.10;12.60;;;9.80;99.90;;;;;;5033702;28;20495;-91
2021/10/13 01:33:18;;;;;;;13.07;11.40;;;9.80;99.90;;;;;;5033051;28;20840;-90
2021/10/13 01:35:48;;;;;;;14.80;12.10;;;9.80;99.90;;;;;;5035561;28;20485;-91
2021/10/13 01:38:19;;;;;;;14.67;11.50;;;9.80;99.90;;;;;;5048261;28;20458;-89
2021/10/13 01:40:47;;;;;;;14.80;10.90;;;9.70;99.90;;;;;;5041711;28;20457;-91
2021/10/13 01:43:17;;;;;;;13.30;11.23;;;9.70;99.90;;;;;;5033604;28;20492;-91
2021/10/13 01:45:47;;;;;;;16.40;12.70;;;9.80;99.90;;;;;;5031808;28;20442;-90
2021/10/13 01:48:15;;;;;;;14.73;12.67;;;9.80;99.90;;;;;;5054564;28;20425;-89
2021/10/13 01:50:44;;;;;;;14.00;11.87;;;9.70;99.90;;;;;;5048841;28;20421;-90
2021/10/13 01:53:12;;;;;;;12.60;11.33;;;9.70;99.90;;;;;;5052542;28;20465;-90
2021/10/13 01:55:40;;;;;;;12.33;10.50;;;9.70;99.90;;;;;;5049244;28;20472;-92
2021/10/13 01:58:07;;;;;;;13.27;10.00;;;9.70;99.90;;;;;;5057049;28;20468;-91
2021/10/13 02:00:36;;;;;;;11.27;10.10;;;9.70;99.90;;;;;;5053902;28;20454;-90
2021/10/13 02:03:07;;;;;;;15.17;12.33;;;9.70;99.90;;;;;;5046836;28;20453;-90
2021/10/13 02:05:36;;;;;;;13.90;10.00;;;9.60;99.90;;;;;;5055948;28;20441;-89
2021/10/13 02:08:03;;;;;;;11.83;9.63;;;9.50;99.90;;;;;;5046407;28;20449;-91
2021/10/13 02:10:32;;;;;;;12.60;11.30;;;9.50;99.90;;;;;;5054099;28;20433;-89
2021/10/13 02:13:01;;;;;;;11.43;10.27;;;9.60;99.90;;;;;;5060377;28;20471;-89
2021/10/13 02:15:29;;;;;;;12.13;10.57;;;9.60;99.90;;;;;;5058475;28;20496;-89
2021/10/13 02:18:00;;;;;;;13.17;11.77;;;9.60;99.90;;;;;;5054048;28;21024;-93
2021/10/13 02:20:30;;;;;;;12.37;10.27;;;9.60;99.90;;;;;;5038359;28;20440;-91
2021/10/13 02:22:59;;;;;;;11.90;10.70;;;9.60;99.90;;;;;;5038685;28;20966;-90
2021/10/13 02:25:33;;;;;;;13.27;10.50;;;9.60;99.90;;;;;;5037320;28;20895;-90
2021/10/13 02:28:03;;;;;;;12.47;10.03;;;9.60;99.90;;;;;;5037725;28;20456;-91
2021/10/13 02:30:30;;;;;;;12.40;10.27;;;9.60;99.90;;;;;;5035507;28;20445;-90
2021/10/13 02:32:58;;;;;;;10.67;9.43;;;9.60;99.90;;;;;;5048334;28;20462;-90
2021/10/13 02:35:25;;;;;;;11.40;10.03;;;9.60;99.90;;;;;;5053652;28;20498;-90
2021/10/13 02:37:51;;;;;;;11.67;10.33;;;9.60;99.90;;;;;;5038730;28;20506;-91
2021/10/13 02:40:18;;;;;;;12.80;11.47;;;9.70;99.90;;;;;;5037763;28;20445;-91
2021/10/13 02:42:45;;;;;;;13.40;10.10;;;9.70;99.90;;;;;;5036533;28;20493;-89
2021/10/13 02:45:12;;;;;;;12.77;11.40;;;9.70;99.90;;;;;;5035610;28;20446;-91
2021/10/13 02:47:42;;;;;;;14.23;12.83;;;9.70;99.90;;;;;;5035561;28;20822;-90
2021/10/13 02:50:17;;;;;;;12.80;11.27;;;9.70;99.90;;;;;;5035617;28;20441;-90
2021/10/13 02:52:52;;;;;;;12.13;10.70;;;9.70;99.90;;;;;;5037565;28;20471;-91
2021/10/13 02:55:22;;;;;;;13.93;10.70;;;9.70;99.90;;;;;;5037132;28;20481;-90
2021/10/13 02:57:55;;;;;;;13.03;11.70;;;9.70;99.90;;;;;;5035493;28;20453;-91
2021/10/13 03:00:22;;;;;;;12.90;11.60;;;9.70;99.90;;;;;;5034989;28;20460;-89
2021/10/13 03:02:56;;;;;;;13.83;10.87;;;9.70;99.90;;;;;;5036143;28;20472;-91
2021/10/13 03:05:25;;;;;;;12.43;11.23;;;9.60;99.90;;;;;;5035347;28;20437;-90
2021/10/13 03:07:55;;;;;;;13.93;11.77;;;9.70;99.90;;;;;;5037258;28;20441;-90
2021/10/13 03:10:24;;;;;;;14.37;11.67;;;9.70;99.90;;;;;;5053457;28;20429;-90
2021/10/13 03:12:54;;;;;;;13.90;11.77;;;9.60;99.90;;;;;;5052072;28;20457;-90
2021/10/13 03:15:24;;;;;;;12.73;11.33;;;9.60;99.90;;;;;;5066391;22;20476;-89
2021/10/13 03:17:54;;;;;;;13.60;12.13;;;9.50;99.90;;;;;;5038181;28;20437;-87
2021/10/13 03:20:23;;;;;;;14.30;12.57;;;9.40;99.90;;;;;;5037549;28;20441;-88
2021/10/13 03:22:56;;;;;;;16.07;12.07;;;9.40;99.90;;;;;;5036627;28;20944;-88
2021/10/13 03:25:23;;;;;;;15.57;11.83;;;9.40;99.90;;;;;;5036825;28;20445;-88
2021/10/13 03:27:50;;;;;;;15.43;12.90;;;9.30;99.90;;;;;;5037353;28;20954;-87
2021/10/13 03:30:17;;;;;;;15.07;13.50;;;9.30;99.90;;;;;;5052139;28;20452;-88
2021/10/13 03:32:44;;;;;;;13.77;12.27;;;9.30;99.90;;;;;;5054758;28;20970;-89
2021/10/13 03:35:19;;;;;;;15.50;13.63;;;9.30;99.90;;;;;;5040174;28;20485;-89
2021/10/13 03:37:46;;;;;;;17.30;13.97;;;9.30;99.90;;;;;;5036910;28;20456;-89
2021/10/13 03:40:14;;;;;;;16.70;13.20;;;9.20;99.90;;;;;;5037781;28;20499;-89
2021/10/13 03:42:41;;;;;;;17.20;14.80;;;9.20;99.90;;;;;;5055003;28;20833;-89
2021/10/13 03:45:12;;;;;;;18.80;13.97;;;9.10;99.90;;;;;;5039584;28;20450;-89
2021/10/13 03:47:38;;;;;;;19.47;13.33;;;9.00;99.90;;;;;;5042415;28;20449;-88
2021/10/13 03:50:07;;;;;;;15.40;12.90;;;8.90;99.90;;;;;;5050121;28;20455;-89
2021/10/13 03:52:33;;;;;;;16.57;14.10;;;8.90;99.90;;;;;;5046322;28;20448;-89
2021/10/13 03:55:00;;;;;;;17.97;13.93;;;8.90;99.90;;;;;;5052766;28;20429;-90
2021/10/13 03:57:28;;;;;;;18.77;13.23;;;8.90;99.90;;;;;;5055047;28;20457;-89
2021/10/13 03:59:55;;;;;;;20.17;14.00;;;8.80;99.90;;;;;;5052078;28;20431;-89
2021/10/13 04:02:22;;;;;;;18.60;13.63;;;8.80;99.90;;;;;;5055720;28;20496;-89
2021/10/13 04:04:49;;;;;;;16.37;14.10;;;8.90;99.90;;;;;;5037771;28;20449;-89
2021/10/13 04:07:16;;;;;;;17.33;14.10;;;8.70;99.90;;;;;;5050563;28;20438;-89
2021/10/13 04:09:42;;;;;;;17.87;13.53;;;8.60;99.90;;;;;;5053211;28;20452;-89
2021/10/13 04:12:09;;;;;;;18.00;13.90;;;8.60;99.90;;;;;;5050740;28;20436;-91
2021/10/13 04:14:37;;;;;;;19.10;14.67;;;8.50;99.90;;;;;;5051303;28;20446;-89
2021/10/13 04:17:04;;;;;;;17.37;13.30;;;8.50;99.90;;;;;;5036254;28;20500;-90
2021/10/13 04:19:31;;;;;;;18.50;13.13;;;8.50;99.90;;;;;;5044682;28;20461;-90
2021/10/13 04:21:58;;;;;;;18.53;15.23;;;8.40;99.90;;;;;;5038634;28;20445;-89
2021/10/13 04:24:25;;;;;;;22.67;13.83;;;8.40;99.90;;;;;;5041548;28;20934;-90
2021/10/13 04:26:52;;;;;;;17.07;13.73;;;8.40;99.90;;;;;;5048098;28;20489;-90
2021/10/13 04:29:21;;;;;;;20.30;15.00;;;8.50;99.90;;;;;;5046552;28;20446;-93
2021/10/13 04:31:50;;;;;;;19.47;16.07;;;8.50;99.90;;;;;;5046600;28;20454;-89
2021/10/13 04:34:17;;;;;;;17.87;15.03;;;8.60;99.90;;;;;;5040539;28;20479;-89
2021/10/13 04:36:44;;;;;;;17.43;14.43;;;8.60;99.90;;;;;;5032341;28;20478;-90
2021/10/13 04:39:11;;;;;;;23.10;15.10;;;8.70;99.90;;;;;;5034570;28;20442;-90
2021/10/13 04:41:38;;;;;;;19.33;14.00;;;8.70;99.90;;;;;;5029223;28;20813;-90
2021/10/13 04:44:06;;;;;;;18.73;14.60;;;8.80;99.90;;;;;;5028064;28;20461;-90
2021/10/13 04:46:33;;;;;;;20.43;15.40;;;8.80;99.90;;;;;;5028939;28;20453;-90
2021/10/13 04:49:02;;;;;;;15.73;13.83;;;8.90;99.90;;;;;;5036980;28;20540;-90
2021/10/13 04:51:29;;;;;;;19.13;15.03;;;8.80;99.90;;;;;;5033206;28;20444;-89
2021/10/13 04:53:56;;;;;;;18.97;14.87;;;8.90;99.90;;;;;;5027013;28;20442;-89
2021/10/13 04:56:22;;;;;;;25.37;14.90;;;8.90;99.90;;;;;;5023454;28;20491;-89
2021/10/13 04:58:49;;;;;;;22.43;16.23;;;8.90;99.90;;;;;;5025130;28;20450;-89
2021/10/13 05:01:16;;;;;;;23.63;15.23;;;9.00;99.90;;;;;;5023535;28;20467;-89
2021/10/13 05:03:42;;;;;;;23.23;16.37;;;9.00;99.90;;;;;;5022675;28;20442;-89
2021/10/13 05:06:11;;;;;;;19.63;14.97;;;9.00;99.90;;;;;;5021434;28;20966;-88
2021/10/13 05:08:37;;;;;;;18.90;15.60;;;9.00;99.90;;;;;;5020146;28;20453;-88
2021/10/13 05:11:04;;;;;;;18.37;14.80;;;8.90;99.90;;;;;;5021040;28;20444;-88
2021/10/13 05:13:31;;;;;;;18.90;14.20;;;8.90;99.90;;;;;;5025518;28;20446;-89
2021/10/13 05:15:57;;;;;;;17.57;13.77;;;8.90;99.90;;;;;;5056981;28;20473;-88
2021/10/13 05:18:24;;;;;;;15.73;12.90;;;8.90;99.90;;;;;;5039025;28;20430;-88
2021/10/13 05:20:51;;;;;;;18.53;15.13;;;8.90;99.90;;;;;;5047569;28;20434;-89
2021/10/13 05:23:19;;;;;;;19.30;14.70;;;9.00;99.90;;;;;;5035005;28;20437;-88
2021/10/13 05:25:45;;;;;;;18.20;14.03;;;9.00;99.90;;;;;;5029611;28;20476;-88
2021/10/13 05:28:12;;;;;;;17.00;13.20;;;9.00;99.90;;;;;;5034320;28;20425;-88
2021/10/13 05:30:39;;;;;;;16.10;12.07;;;9.00;99.90;;;;;;5031218;28;20433;-88
2021/10/13 05:33:05;;;;;;;18.40;14.23;;;9.00;99.90;;;;;;5026554;28;20447;-89
2021/10/13 05:35:32;;;;;;;20.23;13.73;;;9.00;99.90;;;;;;5027673;28;20463;-87
2021/10/13 05:37:59;;;;;;;18.20;13.57;;;8.90;99.90;;;;;;5037888;28;20454;-89
2021/10/13 05:40:27;;;;;;;22.20;13.77;;;8.90;99.90;;;;;;5029355;28;20433;-88
2021/10/13 05:42:54;;;;;;;19.87;15.20;;;8.90;99.90;;;;;;5034818;28;20458;-88
2021/10/13 05:45:21;;;;;;;18.50;13.03;;;8.90;99.90;;;;;;5030988;28;20434;-88
2021/10/13 05:47:48;;;;;;;19.23;13.50;;;8.80;99.90;;;;;;5028471;28;20453;-89
2021/10/13 05:50:14;;;;;;;17.40;13.73;;;8.80;99.90;;;;;;5028102;28;20954;-88
2021/10/13 05:52:41;;;;;;;16.07;13.70;;;8.90;99.90;;;;;;5030995;28;20445;-88
2021/10/13 05:55:08;;;;;;;17.73;13.93;;;8.90;99.90;;;;;;5029206;28;20442;-88
2021/10/13 05:57:37;;;;;;;18.07;13.73;;;9.00;99.90;;;;;;5024832;28;20474;-87
2021/10/13 06:00:05;;;;;;;16.67;13.50;;;9.00;99.90;;;;;;5023286;28;20441;-87
2021/10/13 06:02:34;;;;;;;17.33;13.40;;;9.00;99.90;;;;;;5025599;28;20438;-90
2021/10/13 06:05:00;;;;;;;17.80;14.60;;;9.00;99.90;;;;;;5045254;28;20510;-85
2021/10/13 06:07:27;;;;;;;16.90;13.17;;;9.00;99.90;;;;;;5040619;28;20446;-87
2021/10/13 06:09:54;;;;;;;18.50;14.93;;;9.10;99.90;;;;;;5046504;28;20422;-86
2021/10/13 06:12:20;;;;;;;17.57;13.87;;;9.10;99.90;;;;;;5024105;28;20438;-88
2021/10/13 06:14:48;;;;;;;17.90;12.87;;;9.10;99.90;;;;;;5022231;28;20438;-88
2021/10/13 06:17:15;;;;;;;16.90;14.07;;;9.10;99.90;;;;;;5022657;28;21119;-87
2021/10/13 06:19:42;;;;;;;16.87;15.00;;;9.20;99.90;;;;;;5021659;28;20452;-88
2021/10/13 06:22:09;;;;;;;20.73;13.70;;;9.20;99.90;;;;;;5023371;28;20445;-87
2021/10/13 06:24:36;;;;;;;18.13;12.70;;;9.30;99.90;;;;;;5035727;28;20423;-86
2021/10/13 06:27:03;;;;;;;16.83;13.80;;;9.30;99.90;;;;;;5042989;28;20452;-88
2021/10/13 06:29:30;;;;;;;17.17;13.77;;;9.40;99.90;;;;;;5038989;28;20430;-87
2021/10/13 06:31:58;;;;;;;15.63;12.87;;;9.40;99.90;;;;;;5026318;28;20450;-85
2021/10/13 06:34:25;;;;;;;16.53;13.93;;;9.40;99.90;;;;;;5033841;28;20434;-86
2021/10/13 06:36:52;;;;;;;16.90;13.70;;;9.50;99.90;;;;;;5033768;28;20496;-86
2021/10/13 06:39:18;;;;;;;18.47;13.77;;;9.50;99.90;;;;;;5037711;28;20434;-85
2021/10/13 06:41:45;;;;;;;21.37;13.23;;;9.60;99.90;;;;;;5030610;28;20446;-88
2021/10/13 06:44:12;;;;;;;18.63;13.73;;;9.70;99.90;;;;;;5029206;28;20454;-88
2021/10/13 06:46:39;;;;;;;19.30;15.20;;;9.80;99.90;;;;;;5030276;28;20460;-87
2021/10/13 06:49:08;;;;;;;15.40;13.40;;;9.80;99.90;;;;;;5031745;28;20470;-88
2021/10/13 06:51:35;;;;;;;16.27;13.03;;;9.90;99.90;;;;;;5038070;28;21021;-88
2021/10/13 06:54:02;;;;;;;14.80;11.60;;;9.80;99.90;;;;;;5039135;28;20439;-88
2021/10/13 06:56:29;;;;;;;17.60;12.17;;;9.80;99.90;;;;;;5031914;28;20478;-88
2021/10/13 06:58:55;;;;;;;13.67;11.37;;;9.80;99.90;;;;;;5026697;28;20446;-88
2021/10/13 07:01:22;;;;;;;16.00;11.10;;;9.90;99.90;;;;;;5043625;28;20448;-86
2021/10/13 07:03:49;;;;;;;17.10;12.10;;;9.90;99.90;;;;;;5045194;28;20433;-89
2021/10/13 07:06:18;;;;;;;14.83;12.53;;;10.00;99.90;;;;;;5036841;28;20453;-89
2021/10/13 07:08:45;;;;;;;16.70;12.20;;;10.10;99.90;;;;;;5036528;28;20467;-87
2021/10/13 07:11:14;;;;;;;16.20;13.40;;;10.20;99.90;;;;;;5028382;28;20434;-89
2021/10/13 07:13:41;;;;;;;14.27;10.73;;;10.40;99.90;;;;;;5031112;28;20457;-87
2021/10/13 07:16:08;;;;;;;12.57;9.93;;;10.40;99.90;;;;;;5028174;28;20472;-87
2021/10/13 07:18:35;;;;;;;17.03;10.20;;;10.40;99.90;;;;;;5028333;28;20912;-86
2021/10/13 07:21:03;;;;;;;15.07;10.27;;;10.40;99.90;;;;;;5026353;28;20461;-87
2021/10/13 07:23:31;;;;;;;13.10;11.00;;;10.50;99.90;;;;;;5025233;28;20466;-88
2021/10/13 07:25:58;;;;;;;18.40;10.40;;;10.50;99.90;;;;;;5030259;28;20466;-84
2021/10/13 07:28:25;;;;;;;13.07;10.40;;;10.60;99.90;;;;;;5026050;28;20869;-83
2021/10/13 07:30:52;;;;;;;14.83;9.67;;;10.60;99.90;;;;;;5024844;28;20508;-82
2021/10/13 07:33:20;;;;;;;12.60;9.90;;;10.60;99.90;;;;;;5024093;28;20493;-81
2021/10/13 07:35:47;;;;;;;15.80;10.67;;;10.60;99.90;;;;;;5032633;28;20465;-83
2021/10/13 07:38:16;;;;;;;12.10;9.90;;;10.60;99.90;;;;;;5043466;28;20418;-83
2021/10/13 07:40:45;;;;;;;13.37;9.63;;;10.60;99.90;;;;;;5032776;28;20433;-83
2021/10/13 07:43:13;;;;;;;13.67;10.20;;;10.70;99.90;;;;;;5044931;28;20437;-86
2021/10/13 07:45:41;;;;;;;13.57;10.50;;;10.90;99.90;;;;;;5035079;28;20473;-85
2021/10/13 07:48:07;;;;;;;12.83;10.43;;;11.10;99.90;;;;;;5029201;28;20548;-83
2021/10/13 07:50:34;;;;;;;12.23;10.53;;;11.30;99.90;;;;;;5028637;28;20511;-82
2021/10/13 07:53:01;;;;;;;11.60;10.00;;;11.50;99.90;;;;;;5026128;28;20437;-85
2021/10/13 07:55:28;;;;;;;13.30;10.83;;;11.70;99.90;;;;;;5031478;28;20967;-88
2021/10/13 07:57:56;;;;;;;12.03;10.40;;;11.80;99.90;;;;;;5033132;28;20464;-84
2021/10/13 08:00:23;;;;;;;11.63;9.10;;;11.90;99.90;;;;;;5025272;28;20499;-86
2021/10/13 08:02:50;;;;;;;11.23;10.00;;;12.00;99.90;;;;;;5023701;28;20841;-85
2021/10/13 08:05:18;;;;;;;11.60;10.10;;;12.00;99.90;;;;;;5022758;28;20965;-85
2021/10/13 08:07:45;;;;;;;13.90;11.80;;;12.00;99.90;;;;;;5023872;28;20482;-83
2021/10/13 08:10:12;;;;;;;14.83;11.47;;;12.00;99.90;;;;;;5032530;28;20487;-83
2021/10/13 08:12:39;;;;;;;11.10;9.90;;;12.10;99.90;;;;;;5036567;28;20448;-85
2021/10/13 08:15:08;;;;;;;11.63;10.43;;;12.30;99.90;;;;;;5025608;28;20450;-85
2021/10/13 08:17:35;;;;;;;12.17;10.53;;;12.50;99.90;;;;;;5026069;28;20512;-83
2021/10/13 08:20:03;;;;;;;14.10;11.23;;;12.60;99.90;;;;;;5029717;28;20441;-84
2021/10/13 08:22:30;;;;;;;15.10;13.10;;;12.80;99.90;;;;;;5022501;28;20801;-84
2021/10/13 08:24:57;;;;;;;16.40;11.47;;;13.20;99.90;;;;;;5025722;28;20453;-84
2021/10/13 08:27:24;;;;;;;13.80;12.10;;;13.50;99.90;;;;;;5025872;28;20489;-84
2021/10/13 08:29:51;;;;;;;13.57;12.27;;;13.50;99.90;;;;;;5025465;28;20458;-86
2021/10/13 08:32:19;;;;;;;14.83;11.33;;;13.30;99.90;;;;;;5024788;28;20441;-86
2021/10/13 08:34:46;;;;;;;15.73;12.70;;;13.30;99.90;;;;;;5022593;28;20440;-86
2021/10/13 08:37:13;;;;;;;13.93;12.20;;;13.40;99.90;;;;;;5024557;28;20486;-85
2021/10/13 08:39:39;;;;;;;15.57;13.30;;;13.50;99.90;;;;;;5024298;28;20544;-84
2021/10/13 08:42:08;;;;;;;15.03;13.30;;;13.60;99.90;;;;;;5028562;28;20446;-84
2021/10/13 08:44:34;;;;;;;15.90;12.87;;;14.20;99.90;;;;;;5037778;28;20431;-85
2021/10/13 08:47:02;;;;;;;12.60;11.30;;;14.80;99.90;;;;;;5036651;28;20467;-85
2021/10/13 08:49:30;;;;;;;15.27;12.73;;;15.30;99.90;;;;;;5042803;28;20434;-84
2021/10/13 08:51:56;;;;;;;16.63;12.60;;;15.00;99.90;;;;;;5029906;28;20438;-84
2021/10/13 08:54:23;;;;;;;14.30;12.43;;;14.30;99.90;;;;;;5029259;28;20471;-84
2021/10/13 08:56:50;;;;;;;14.37;12.87;;;13.80;99.90;;;;;;5034455;28;20977;-83
2021/10/13 08:59:39;;;;;;;15.03;12.50;;;13.60;99.90;;;;;;5035969;28;20432;-84
2021/10/13 09:02:06;;;;;;;13.13;11.47;;;13.40;99.90;;;;;;5042917;28;20443;-82
2021/10/13 09:04:34;;;;;;;15.47;12.20;;;13.40;99.90;;;;;;5038257;28;20443;-84
2021/10/13 09:07:02;;;;;;;20.00;13.20;;;13.50;99.90;;;;;;5029976;28;20485;-86
2021/10/13 09:09:29;;;;;;;18.77;11.90;;;13.60;99.90;;;;;;5031075;28;20447;-84
2021/10/13 09:11:55;;;;;;;16.70;13.10;;;13.60;99.90;;;;;;5038278;28;20428;-84
2021/10/13 09:14:24;;;;;;;17.97;11.60;;;13.60;99.90;;;;;;5037714;28;20496;-84
2021/10/13 09:16:54;;;;;;;12.10;9.63;;;13.70;99.90;;;;;;5027698;28;20984;-84
2021/10/13 09:19:23;;;;;;;15.20;10.03;;;13.70;99.90;;;;;;5026615;28;20820;-85
2021/10/13 09:21:54;;;;;;;16.10;10.93;;;13.60;99.90;;;;;;5027189;28;20815;-91
2021/10/13 09:24:22;;;;;;;15.93;10.57;;;13.50;99.90;;;;;;5024168;28;20447;-83
2021/10/13 09:26:49;;;;;;;13.83;10.20;;;13.40;99.90;;;;;;5024047;28;20468;-85
2021/10/13 09:29:16;;;;;;;10.10;7.47;;;13.30;99.90;;;;;;5022175;28;20516;-86
2021/10/13 09:31:45;;;;;;;13.70;8.20;;;13.20;99.90;;;;;;5054742;23;20502;-90
2021/10/13 09:34:12;;;;;;;8.37;7.10;;;13.20;99.90;;;;;;5050340;28;20434;-89
2021/10/13 09:36:42;;;;;;;5.10;4.40;;;13.20;99.90;;;;;;5048000;28;20530;-91
2021/10/13 09:39:13;;;;;;;5.80;5.00;;;13.20;99.90;;;;;;5058856;28;20441;-90
2021/10/13 09:42:01;;;;;;;7.43;4.00;;;13.20;99.90;;;;;;5047449;28;20455;-90
2021/10/13 09:44:32;;;;;;;4.73;4.07;;;13.20;99.90;;;;;;5034837;28;20454;-90
2021/10/13 09:47:00;;;;;;;4.03;3.57;;;13.30;99.90;;;;;;5019417;28;20974;-90
2021/10/13 09:49:37;;;;;;;6.00;4.50;;;13.40;99.90;;;;;;5032160;28;20453;-88
2021/10/13 09:52:09;;;;;;;7.57;4.07;;;13.60;99.90;;;;;;5036891;28;20499;-90
2021/10/13 09:54:41;;;;;;;6.40;4.80;;;13.80;99.90;;;;;;5036136;28;20433;-90
2021/10/13 09:57:45;;;;;;;3.70;3.20;;;14.10;99.90;;;;;;5035264;28;20485;-91
2021/10/13 10:00:14;;;;;;;4.43;3.47;;;14.40;99.80;;;;;;5030414;28;20461;-89
2021/10/13 10:02:46;;;;;;;9.47;5.03;;;14.80;98.70;;;;;;5047662;28;20441;-90
2021/10/13 10:05:15;;;;;;;6.77;5.40;;;15.30;97.60;;;;;;5036112;28;20463;-89
2021/10/13 10:07:43;;;;;;;11.03;6.60;;;15.90;97.20;;;;;;5034764;28;20485;-90
2021/10/13 10:10:21;;;;;;;7.60;5.47;;;17.50;96.20;;;;;;5037000;28;20465;-90
2021/10/13 10:12:59;;;;;;;10.40;5.83;;;19.10;92.50;;;;;;5039049;28;20554;-91
2021/10/13 10:15:35;;;;;;;5.93;4.80;;;20.60;88.50;;;;;;5043129;28;20442;-90
2021/10/13 10:18:04;;;;;;;7.90;6.20;;;22.30;79.20;;;;;;5044534;28;20456;-90
2021/10/13 10:20:42;;;;;;;10.60;6.60;;;23.30;74.90;;;;;;5037416;28;20461;-89
2021/10/13 10:23:35;;;;;;;7.53;6.70;;;24.40;70.20;;;;;;5055030;28;20434;-92
2021/10/13 10:26:34;;;;;;;9.63;7.30;;;24.80;62.00;;;;;;5050011;28;20466;-89
2021/10/13 10:29:03;;;;;;;9.53;8.67;;;23.50;62.10;;;;;;5049620;28;20474;-89
2021/10/13 10:31:45;;;;;;;10.83;9.73;;;21.80;66.50;;;;;;5049639;28;20500;-88
2021/10/13 10:34:15;;;;;;;11.10;10.10;;;20.30;69.90;;;;;;5047833;28;20487;-89
2021/10/13 10:37:11;;;;;;;10.83;9.83;;;19.10;75.00;;;;;;5051157;28;20950;-88
2021/10/13 10:40:12;;;;;;;10.40;9.30;;;18.20;78.70;;;;;;5051447;28;20528;-90
2021/10/13 10:43:08;;;;;;;12.50;8.70;;;18.50;80.00;;;;;;4984433;28;20945;-91
2021/10/13 10:45:49;;;;;;;6.90;6.20;;;18.40;78.80;;;;;;5038136;28;20449;-89
2021/10/13 10:48:17;;;;;;;8.20;6.90;;;18.50;77.20;;;;;;5042847;28;20480;-88
2021/10/13 10:50:55;;;;;;;10.47;7.90;;;18.20;76.80;;;;;;5045317;28;20457;-90
2021/10/13 10:53:30;;;;;;;9.23;8.10;;;18.30;77.80;;;;;;5044289;28;20520;-89
2021/10/13 10:56:00;;;;;;;8.33;7.63;;;19.40;78.40;;;;;;5044291;28;20447;-90
2021/10/13 10:58:30;;;;;;;11.57;10.47;;;20.20;74.20;;;;;;5046812;28;20447;-91
2021/10/13 11:01:24;;;;;;;11.80;9.57;;;19.80;74.80;;;;;;5049492;28;20475;-89
2021/10/13 11:03:50;;;;;;;13.30;10.63;;;18.90;76.20;;;;;;5045999;28;20438;-90
2021/10/13 11:06:20;;;;;;;14.67;9.63;;;18.60;78.10;;;;;;5042082;28;20456;-90
2021/10/13 11:09:06;;;;;;;11.03;9.80;;;18.90;78.70;;;;;;5047375;28;20480;-91
2021/10/13 11:11:37;;;;;;;12.00;10.13;;;19.10;76.20;;;;;;5048808;28;20523;-90
2021/10/13 11:14:14;;;;;;;10.97;9.93;;;18.90;76.30;;;;;;5040360;28;20465;-90
2021/10/13 11:16:56;;;;;;;10.47;9.20;;;18.50;77.10;;;;;;5042603;28;20469;-91
2021/10/13 11:19:25;;;;;;;12.30;11.00;;;17.90;78.60;;;;;;5041604;28;20567;-90
2021/10/13 11:22:00;;;;;;;9.30;8.37;;;17.40;80.30;;;;;;5042408;28;20518;-91
2021/10/13 11:24:28;;;;;;;11.60;7.90;;;16.90;82.90;;;;;;5053338;28;20452;-89
2021/10/13 11:26:55;;;;;;;8.03;6.60;;;16.60;83.20;;;;;;5057330;28;20478;-89
2021/10/13 11:29:26;;;;;;;12.83;7.27;;;16.70;84.30;;;;;;5053855;28;20466;-89
2021/10/13 11:32:06;;;;;;;13.33;7.13;;;17.50;82.80;;;;;;5043661;28;20477;-89
2021/10/13 11:34:36;;;;;;;8.60;5.33;;;19.10;78.00;;;;;;5056106;28;20457;-89
2021/10/13 11:37:30;;;;;;;8.23;6.23;;;18.80;75.50;;;;;;5057439;28;20467;-88
2021/10/13 11:40:26;;;;;;;8.40;5.60;;;18.20;76.90;;;;;;5056556;28;20462;-89
2021/10/13 11:42:56;;;;;;;6.73;5.50;;;17.70;78.80;;;;;;5045748;28;20434;-87
2021/10/13 11:45:27;;;;;;;5.90;5.40;;;17.40;79.20;;;;;;5051678;28;20441;-90
2021/10/13 11:48:35;;;;;;;6.63;5.17;;;16.80;80.50;;;;;;5034749;28;20482;-89
2021/10/13 11:56:24;;;;;;;3.03;2.80;;;18.10;80.70;;;;;;5066549;28;20504;-90
2021/10/13 11:59:11;;;;;;;4.40;2.17;;;22.20;69.60;;;;;;5083376;28;20450;-90
2021/10/13 12:01:50;;;;;;;2.30;1.80;;;25.70;61.70;;;;;;5083898;28;20476;-91
2021/10/13 12:04:24;;;;;;;2.53;1.80;;;26.90;51.90;;;;;;5080030;28;20463;-91
2021/10/13 12:06:53;;;;;;;2.93;1.60;;;24.30;53.80;;;;;;5078383;28;20559;-92
2021/10/13 12:09:20;;;;;;;2.23;1.70;;;22.10;55.60;;;;;;5077781;28;20475;-91
2021/10/13 12:11:47;;;;;;;4.60;1.83;;;20.60;59.00;;;;;;5080634;28;20462;-89
2021/10/13 12:14:15;;;;;;;2.53;1.50;;;20.30;61.50;;;;;;5082446;28;20489;-90
2021/10/13 12:16:43;;;;;;;2.43;1.73;;;20.00;62.20;;;;;;5077388;28;20485;-90
2021/10/13 12:19:21;;;;;;;2.30;1.80;;;19.90;63.10;;;;;;5076847;28;20459;-91
2021/10/13 12:22:01;;;;;;;3.87;1.63;;;20.30;62.00;;;;;;5076540;28;20450;-91
2021/10/13 12:24:28;;;;;;;1.53;1.40;;;21.10;61.00;;;;;;5075625;28;20793;-90
2021/10/13 12:27:00;;;;;;;2.40;1.40;;;20.50;61.00;;;;;;5075608;28;20826;-91
2021/10/13 12:29:43;;;;;;;1.93;1.10;;;19.60;62.50;;;;;;5078599;28;20561;-90
2021/10/13 12:32:21;;;;;;;1.20;1.10;;;19.20;63.90;;;;;;5073692;28;20498;-90
2021/10/13 12:35:16;;;;;;;5.20;1.40;;;19.60;63.50;;;;;;5076259;28;20451;-91
2021/10/13 12:37:54;;;;;;;1.37;1.23;;;19.20;63.00;;;;;;5079061;28;20448;-89
2021/10/13 12:40:34;;;;;;;1.73;1.07;;;18.50;66.40;;;;;;5079869;28;20864;-91
2021/10/13 12:43:20;;;;;;;1.63;1.30;;;17.80;70.00;;;;;;5074950;28;20824;-90
2021/10/13 12:45:47;;;;;;;2.63;1.30;;;16.90;73.80;;;;;;5075290;28;20457;-88
2021/10/13 12:48:18;;;;;;;1.73;1.37;;;16.20;78.90;;;;;;5074735;28;20480;-91
2021/10/13 12:51:09;;;;;;;1.60;1.50;;;15.80;81.80;;;;;;5074827;28;20463;-89
2021/10/13 12:53:38;;;;;;;1.43;1.13;;;15.50;84.40;;;;;;5075083;28;20880;-90
2021/10/13 12:56:06;;;;;;;3.30;2.00;;;15.30;87.80;;;;;;5074722;28;21224;-90
2021/10/13 12:58:33;;;;;;;3.63;1.97;;;15.30;89.60;;;;;;5073669;28;20816;-90
2021/10/13 13:01:01;;;;;;;7.73;2.40;;;15.40;89.20;;;;;;5074837;28;20976;-90
2021/10/13 13:03:30;;;;;;;2.93;2.20;;;15.60;89.10;;;;;;5077878;28;20449;-90
2021/10/13 13:05:56;;;;;;;3.13;2.20;;;16.00;89.40;;;;;;5076270;28;21021;-91